sensor_id;sensor_type;location;lat;lon;timestamp;pressure;altitude;pressure_sealevel;temperature;humidity
12676;BME280;63820;65.654;21.944;2023-02-12T17:51:25;100196.31;;;2.58;100.00
12676;BME280;63820;65.654;21.944;2023-02-12T17:54:09;100199.03;;;2.49;100.00
12676;BME280;63820;65.654;21.944;2023-02-12T17:56:54;100189.75;;;2.39;100.00
12676;BME280;63820;65.654;21.944;2023-02-12T17:59:38;100194.13;;;2.33;100.00
12676;BME280;63820;65.654;21.944;2023-02-12T18:02:22;100190.84;;;2.23;100.00
12676;BME280;63820;65.654;21.944;2023-02-12T18:05:07;100201.19;;;2.17;100.00
12676;BME280;63820;65.654;21.944;2023-02-12T18:07:51;100196.25;;;2.05;100.00
12676;BME280;63820;65.654;21.944;2023-02-12T18:10:41;100187.19;;;1.78;100.00
12676;BME280;63820;65.654;21.944;2023-02-12T18:13:26;100200.03;;;1.78;100.00
12676;BME280;63820;65.654;21.944;2023-02-12T18:16:10;100184.94;;;2.18;100.00
12676;BME280;63820;65.654;21.944;2023-02-12T18:18:54;100181.41;;;2.26;100.00
12676;BME280;63820;65.654;21.944;2023-02-12T18:21:39;100187.31;;;2.30;100.00
12676;BME280;63820;65.654;21.944;2023-02-12T18:24:24;100191.69;;;2.25;100.00
12676;BME280;63820;65.654;21.944;2023-02-12T18:27:08;100167.88;;;2.15;100.00
12676;BME280;63820;65.654;21.944;2023-02-12T18:29:52;100172.88;;;2.24;100.00
12676;BME280;63820;65.654;21.944;2023-02-12T18:32:36;100177.16;;;2.24;100.00
12676;BME280;63820;65.654;21.944;2023-02-12T18:35:21;100176.28;;;2.25;100.00
12676;BME280;63820;65.654;21.944;2023-02-12T18:38:05;100163.22;;;2.40;98.79
12676;BME280;63820;65.654;21.944;2023-02-12T18:40:49;100156.31;;;2.45;98.33
12676;BME280;63820;65.654;21.944;2023-02-12T18:43:33;100163.88;;;2.53;95.49
12676;BME280;63820;65.654;21.944;2023-02-12T18:46:21;100159.56;;;2.56;96.11
12676;BME280;63820;65.654;21.944;2023-02-12T18:49:06;100164.78;;;2.50;97.31
12676;BME280;63820;65.654;21.944;2023-02-12T18:51:51;100149.38;;;2.50;96.90
12676;BME280;63820;65.654;21.944;2023-02-12T18:54:35;100146.75;;;2.55;95.91
12676;BME280;63820;65.654;21.944;2023-02-12T18:57:20;100141.50;;;2.61;94.91
12676;BME280;63820;65.654;21.944;2023-02-12T19:00:05;100133.78;;;2.62;95.45
12676;BME280;63820;65.654;21.944;2023-02-12T19:02:49;100096.63;;;2.31;94.96
12676;BME280;63820;65.654;21.944;2023-02-12T19:05:33;100132.78;;;2.71;93.61
12676;BME280;63820;65.654;21.944;2023-02-12T19:08:18;100119.88;;;2.74;93.33
12676;BME280;63820;65.654;21.944;2023-02-12T19:11:05;100115.78;;;2.64;94.01
12676;BME280;63820;65.654;21.944;2023-02-12T19:13:49;100129.50;;;2.63;93.76
12676;BME280;63820;65.654;21.944;2023-02-12T19:16:34;100116.59;;;2.66;92.71
12676;BME280;63820;65.654;21.944;2023-02-12T19:19:19;100114.03;;;2.66;92.16
12676;BME280;63820;65.654;21.944;2023-02-12T19:22:04;100111.22;;;2.80;92.00
12676;BME280;63820;65.654;21.944;2023-02-12T19:24:49;100108.63;;;2.81;91.67
12676;BME280;63820;65.654;21.944;2023-02-12T19:27:34;100094.59;;;2.51;93.78
12676;BME280;63820;65.654;21.944;2023-02-12T19:30:18;100108.94;;;2.63;92.46
12676;BME280;63820;65.654;21.944;2023-02-12T19:33:03;100092.63;;;2.66;92.36
12676;BME280;63820;65.654;21.944;2023-02-12T19:35:48;100104.72;;;2.59;94.05
12676;BME280;63820;65.654;21.944;2023-02-12T19:38:34;100102.94;;;2.64;93.42
12676;BME280;63820;65.654;21.944;2023-02-12T19:41:21;100105.31;;;2.75;91.80
12676;BME280;63820;65.654;21.944;2023-02-12T19:44:12;100106.41;;;2.61;93.23
12676;BME280;63820;65.654;21.944;2023-02-12T19:46:56;100105.78;;;2.47;94.64
12676;BME280;63820;65.654;21.944;2023-02-12T19:49:42;100102.56;;;2.85;91.46
12676;BME280;63820;65.654;21.944;2023-02-12T19:52:26;100099.22;;;2.80;92.71
12676;BME280;63820;65.654;21.944;2023-02-12T19:55:10;100096.75;;;2.76;91.65
12676;BME280;63820;65.654;21.944;2023-02-12T19:57:54;100084.81;;;2.73;92.68
12676;BME280;63820;65.654;21.944;2023-02-12T20:00:38;100087.13;;;2.87;91.34
12676;BME280;63820;65.654;21.944;2023-02-12T20:03:22;100076.06;;;2.83;91.62
12676;BME280;63820;65.654;21.944;2023-02-12T20:06:09;100081.19;;;2.83;91.50
12676;BME280;63820;65.654;21.944;2023-02-12T20:08:54;100087.88;;;2.92;90.04
12676;BME280;63820;65.654;21.944;2023-02-12T20:11:38;100090.63;;;2.83;91.72
12676;BME280;63820;65.654;21.944;2023-02-12T20:14:23;100092.19;;;2.90;90.37
12676;BME280;63820;65.654;21.944;2023-02-12T20:17:07;100093.94;;;2.88;91.14
12676;BME280;63820;65.654;21.944;2023-02-12T20:19:52;100107.00;;;2.77;92.59
12676;BME280;63820;65.654;21.944;2023-02-12T20:22:36;100110.56;;;2.69;92.87
12676;BME280;63820;65.654;21.944;2023-02-12T20:25:21;100105.25;;;2.79;92.59
12676;BME280;63820;65.654;21.944;2023-02-12T20:28:06;100107.78;;;2.81;91.21
12676;BME280;63820;65.654;21.944;2023-02-12T20:30:51;100111.28;;;2.77;91.41
12676;BME280;63820;65.654;21.944;2023-02-12T20:33:35;100130.34;;;2.63;93.77
12676;BME280;63820;65.654;21.944;2023-02-12T20:36:19;100123.75;;;2.47;96.29
12676;BME280;63820;65.654;21.944;2023-02-12T20:39:06;100113.53;;;2.44;96.66
12676;BME280;63820;65.654;21.944;2023-02-12T20:41:51;100111.88;;;2.42;98.57
12676;BME280;63820;65.654;21.944;2023-02-12T20:44:35;100108.44;;;2.41;98.39
12676;BME280;63820;65.654;21.944;2023-02-12T20:47:20;100093.72;;;2.52;98.75
12676;BME280;63820;65.654;21.944;2023-02-12T20:50:11;100087.66;;;2.56;99.63
12676;BME280;63820;65.654;21.944;2023-02-12T20:52:55;100081.81;;;2.48;100.00
12676;BME280;63820;65.654;21.944;2023-02-12T20:55:39;100079.09;;;2.57;100.00
12676;BME280;63820;65.654;21.944;2023-02-12T20:58:23;100072.31;;;2.52;100.00
12676;BME280;63820;65.654;21.944;2023-02-12T21:01:14;100058.81;;;2.42;100.00
12676;BME280;63820;65.654;21.944;2023-02-12T21:04:15;100062.03;;;2.53;100.00
12676;BME280;63820;65.654;21.944;2023-02-12T21:07:00;100054.47;;;2.46;100.00
12676;BME280;63820;65.654;21.944;2023-02-12T21:09:44;100023.03;;;2.33;100.00
12676;BME280;63820;65.654;21.944;2023-02-12T21:12:28;100051.63;;;2.61;100.00
12676;BME280;63820;65.654;21.944;2023-02-12T21:15:12;100049.09;;;2.59;100.00
12676;BME280;63820;65.654;21.944;2023-02-12T21:17:56;100052.31;;;2.71;100.00
12676;BME280;63820;65.654;21.944;2023-02-12T21:20:40;100042.91;;;2.70;100.00
12676;BME280;63820;65.654;21.944;2023-02-12T21:23:24;100045.53;;;2.67;100.00
12676;BME280;63820;65.654;21.944;2023-02-12T21:26:10;100031.03;;;2.64;100.00
12676;BME280;63820;65.654;21.944;2023-02-12T21:28:57;100044.78;;;2.61;100.00
12676;BME280;63820;65.654;21.944;2023-02-12T21:31:44;100038.03;;;2.56;100.00
12676;BME280;63820;65.654;21.944;2023-02-12T21:34:29;100051.50;;;2.69;100.00
12676;BME280;63820;65.654;21.944;2023-02-12T21:37:13;100043.13;;;2.57;100.00
12676;BME280;63820;65.654;21.944;2023-02-12T21:39:57;100035.16;;;2.73;100.00
12676;BME280;63820;65.654;21.944;2023-02-12T21:42:40;100023.38;;;2.61;100.00
12676;BME280;63820;65.654;21.944;2023-02-12T21:45:25;100033.16;;;2.41;100.00
12676;BME280;63820;65.654;21.944;2023-02-12T21:48:08;100019.38;;;2.46;100.00
12676;BME280;63820;65.654;21.944;2023-02-12T21:50:52;100017.63;;;2.48;100.00
12676;BME280;63820;65.654;21.944;2023-02-12T21:53:36;100029.53;;;2.52;100.00
12676;BME280;63820;65.654;21.944;2023-02-12T21:56:21;100033.94;;;2.44;100.00
12676;BME280;63820;65.654;21.944;2023-02-12T21:59:06;100022.81;;;2.45;100.00
12676;BME280;63820;65.654;21.944;2023-02-12T22:01:53;100014.97;;;2.53;100.00
12676;BME280;63820;65.654;21.944;2023-02-12T22:04:38;100016.63;;;2.55;100.00
12676;BME280;63820;65.654;21.944;2023-02-12T22:07:23;100008.88;;;2.58;100.00
12676;BME280;63820;65.654;21.944;2023-02-12T22:10:07;100000.03;;;2.75;100.00
12676;BME280;63820;65.654;21.944;2023-02-12T22:12:52;99994.94;;;2.72;99.99
12676;BME280;63820;65.654;21.944;2023-02-12T22:15:36;99999.19;;;2.73;100.00
12676;BME280;63820;65.654;21.944;2023-02-12T22:18:20;100003.63;;;2.65;100.00
12676;BME280;63820;65.654;21.944;2023-02-12T22:21:06;99993.41;;;2.61;100.00
12676;BME280;63820;65.654;21.944;2023-02-12T22:23:50;99989.75;;;2.75;98.65
12676;BME280;63820;65.654;21.944;2023-02-12T22:26:35;99982.91;;;2.74;99.83
12676;BME280;63820;65.654;21.944;2023-02-12T22:29:19;99965.06;;;2.68;98.85
12676;BME280;63820;65.654;21.944;2023-02-12T22:32:03;99980.56;;;2.63;99.47
12676;BME280;63820;65.654;21.944;2023-02-12T22:34:48;99981.56;;;2.54;100.00
12676;BME280;63820;65.654;21.944;2023-02-12T22:37:32;99968.97;;;2.42;100.00
12676;BME280;63820;65.654;21.944;2023-02-12T22:40:16;99976.41;;;2.56;98.77
12676;BME280;63820;65.654;21.944;2023-02-12T22:43:00;99974.00;;;2.47;99.41
12676;BME280;63820;65.654;21.944;2023-02-12T22:45:44;99958.56;;;2.48;98.61
12676;BME280;63820;65.654;21.944;2023-02-12T22:48:29;99964.66;;;2.44;98.82
12676;BME280;63820;65.654;21.944;2023-02-12T22:54:00;99966.31;;;2.47;98.09
12676;BME280;63820;65.654;21.944;2023-02-12T22:56:49;99957.00;;;2.41;97.67
12676;BME280;63820;65.654;21.944;2023-02-12T22:59:33;99949.25;;;2.44;97.90
12676;BME280;63820;65.654;21.944;2023-02-12T23:02:17;99944.97;;;2.45;97.96
12676;BME280;63820;65.654;21.944;2023-02-12T23:05:02;99944.78;;;2.54;96.16
12676;BME280;63820;65.654;21.944;2023-02-12T23:07:46;99938.06;;;2.90;93.03
12676;BME280;63820;65.654;21.944;2023-02-12T23:10:30;99918.06;;;3.04;91.84
12676;BME280;63820;65.654;21.944;2023-02-12T23:13:15;99935.09;;;3.10;90.86
12676;BME280;63820;65.654;21.944;2023-02-12T23:15:59;99930.91;;;3.04;91.36
12676;BME280;63820;65.654;21.944;2023-02-12T23:18:43;99928.88;;;3.18;90.82
12676;BME280;63820;65.654;21.944;2023-02-12T23:21:29;99908.88;;;3.31;90.64
12676;BME280;63820;65.654;21.944;2023-02-12T23:24:13;99915.19;;;3.16;91.61
12676;BME280;63820;65.654;21.944;2023-02-12T23:26:58;99929.75;;;3.17;90.75
12676;BME280;63820;65.654;21.944;2023-02-12T23:29:41;99918.03;;;3.06;91.39
12676;BME280;63820;65.654;21.944;2023-02-12T23:32:25;99917.13;;;3.08;90.32
12676;BME280;63820;65.654;21.944;2023-02-12T23:35:10;99910.56;;;3.32;90.44
12676;BME280;63820;65.654;21.944;2023-02-12T23:37:54;99893.34;;;3.36;88.24
12676;BME280;63820;65.654;21.944;2023-02-12T23:40:38;99905.22;;;3.41;88.43
12676;BME280;63820;65.654;21.944;2023-02-12T23:43:23;99903.34;;;3.48;87.30
12676;BME280;63820;65.654;21.944;2023-02-12T23:46:07;99921.47;;;3.42;89.24
12676;BME280;63820;65.654;21.944;2023-02-12T23:48:52;99928.78;;;3.21;90.30
12676;BME280;63820;65.654;21.944;2023-02-12T23:51:36;99926.03;;;3.31;88.97
12676;BME280;63820;65.654;21.944;2023-02-12T23:54:20;99923.31;;;3.37;88.30
12676;BME280;63820;65.654;21.944;2023-02-12T23:57:04;99915.66;;;3.34;88.98
12676;BME280;63820;65.654;21.944;2023-02-12T23:59:48;99902.28;;;3.19;89.23
